Zalma, Missouri
Current Conditions -  °F | °C
As of 2:53 AM on Sunday 26 Oct 2014 (Local Time) from KPOF Reporting Station
Moderate Fog Moderate Fog  
Wind Chill: 56°   Ceiling: 100
Heat Index: 56°   Visibility: 0.25mi
Dew Point: 54°   Wind: 0mph
Humidity: 93%   Direction: NA
Pressure: 29.98"   Gusts: NA
Location:  37.14°N, 90.08°W
Report Text: KPOF 260753Z AUTO 00000KT 1/4SM FG VV001 13/12 A2998 RMK AO2 SLP149 T01330122
Loading
Personal Weather Stations






























Interactive Weather Map
Tropical Storm Tracking
New forecast layout! Learn more

10-Day Weather Forecast

Advertisements
Track Severe Weather on mobile